createdAt,value
2023-05-10T00:00:17.210Z,22.43
2023-05-10T00:02:43.917Z,22.45
2023-05-10T00:05:10.603Z,22.42
2023-05-10T00:07:37.107Z,22.42
2023-05-10T00:10:03.711Z,22.41
2023-05-10T00:12:30.314Z,22.41
2023-05-10T00:14:56.804Z,22.40
2023-05-10T00:17:23.327Z,22.40
2023-05-10T00:19:49.903Z,22.40
2023-05-10T00:22:16.455Z,22.41
2023-05-10T00:24:42.932Z,22.39
2023-05-10T00:27:09.466Z,22.39
2023-05-10T00:29:35.979Z,22.40
2023-05-10T00:32:02.556Z,22.40
2023-05-10T00:34:29.311Z,22.38
2023-05-10T00:36:55.856Z,22.38
2023-05-10T00:39:22.352Z,22.39
2023-05-10T00:41:48.861Z,22.37
2023-05-10T00:44:15.352Z,22.37
2023-05-10T00:46:42.864Z,22.38
2023-05-10T00:49:09.573Z,22.38
2023-05-10T00:51:36.323Z,22.36
2023-05-10T00:54:03.650Z,22.36
2023-05-10T00:56:31.035Z,22.34
2023-05-10T00:58:58.023Z,22.35
2023-05-10T01:01:24.758Z,22.36
2023-05-10T01:03:52.173Z,22.34
2023-05-10T01:06:18.718Z,22.34
2023-05-10T01:08:45.312Z,22.35
2023-05-10T01:11:11.835Z,22.35
2023-05-10T01:13:40.462Z,22.34
2023-05-10T01:16:07.868Z,22.34
2023-05-10T01:18:37.058Z,22.36
2023-05-10T01:21:17.895Z,22.35
2023-05-10T01:24:05.607Z,22.33
2023-05-10T01:26:50.824Z,22.33
2023-05-10T01:29:45.447Z,22.32
2023-05-10T01:32:23.342Z,22.32
2023-05-10T01:35:04.112Z,22.33
2023-05-10T01:38:08.308Z,22.33
2023-05-10T01:40:45.257Z,22.32
2023-05-10T01:43:20.556Z,22.32
2023-05-10T01:46:05.675Z,22.32
2023-05-10T01:48:33.781Z,22.30
2023-05-10T01:51:01.151Z,22.31
2023-05-10T01:53:29.000Z,22.28
2023-05-10T01:55:56.524Z,22.29
2023-05-10T01:58:30.413Z,22.28
2023-05-10T02:00:59.292Z,22.29
2023-05-10T02:03:28.544Z,22.30
2023-05-10T02:05:57.065Z,22.29
2023-05-10T02:08:24.800Z,22.29
2023-05-10T02:10:54.557Z,22.28
2023-05-10T02:13:23.138Z,22.27
2023-05-10T02:15:51.866Z,22.29
2023-05-10T02:18:19.274Z,22.27
2023-05-10T02:20:48.382Z,22.26
2023-05-10T02:23:16.499Z,22.26
2023-05-10T02:25:44.911Z,22.27
2023-05-10T02:28:13.392Z,22.26
2023-05-10T02:30:40.659Z,22.28
2023-05-10T02:33:08.753Z,22.26
2023-05-10T02:35:37.503Z,22.27
2023-05-10T02:38:05.740Z,22.25
2023-05-10T02:40:34.541Z,22.25
2023-05-10T02:43:03.533Z,22.26
2023-05-10T02:45:32.141Z,22.25
2023-05-10T02:47:59.563Z,22.26
2023-05-10T02:50:29.623Z,22.25
2023-05-10T02:53:04.816Z,22.23
2023-05-10T02:55:37.514Z,22.23
2023-05-10T02:58:04.723Z,22.23
2023-05-10T03:00:32.045Z,22.24
2023-05-10T03:02:58.855Z,22.24
2023-05-10T03:05:25.552Z,22.24
2023-05-10T03:07:53.313Z,22.27
2023-05-10T03:10:21.017Z,22.23
2023-05-10T03:13:08.594Z,22.24
2023-05-10T03:16:09.553Z,22.23
2023-05-10T03:18:51.772Z,22.24
2023-05-10T03:21:21.552Z,22.23
2023-05-10T03:23:52.303Z,22.21
2023-05-10T03:26:27.726Z,22.19
2023-05-10T03:28:55.412Z,22.21
2023-05-10T03:31:22.183Z,22.21
2023-05-10T03:33:52.940Z,22.20
2023-05-10T03:36:20.562Z,22.20
2023-05-10T03:38:47.202Z,22.20
2023-05-10T03:41:13.868Z,22.20
2023-05-10T03:43:40.756Z,22.19
2023-05-10T03:46:07.394Z,22.19
2023-05-10T03:48:34.428Z,22.18
2023-05-10T03:51:00.981Z,22.20
2023-05-10T03:53:28.034Z,22.19
2023-05-10T03:55:54.568Z,22.19
2023-05-10T03:58:21.337Z,22.18
2023-05-10T04:00:47.830Z,22.17
2023-05-10T04:03:14.746Z,22.19
2023-05-10T04:05:41.565Z,22.19
2023-05-10T04:08:08.251Z,22.18
2023-05-10T04:10:35.291Z,22.16
2023-05-10T04:13:01.974Z,22.18
2023-05-10T04:15:28.525Z,22.15
2023-05-10T04:17:55.144Z,22.16
2023-05-10T04:20:21.669Z,22.15
2023-05-10T04:22:48.172Z,22.17
2023-05-10T04:25:15.121Z,22.15
2023-05-10T04:27:41.660Z,22.16
2023-05-10T04:30:08.735Z,22.17
2023-05-10T04:32:35.370Z,22.17
2023-05-10T04:35:04.437Z,22.14
2023-05-10T04:37:30.990Z,22.15
2023-05-10T04:39:57.537Z,22.15
2023-05-10T04:42:24.312Z,22.14
2023-05-10T04:44:50.827Z,22.13
2023-05-10T04:47:17.453Z,22.13
2023-05-10T04:49:44.016Z,22.13
2023-05-10T04:52:10.562Z,22.14
2023-05-10T04:54:37.253Z,22.14
2023-05-10T04:57:03.895Z,22.15
2023-05-10T04:59:30.410Z,22.14
2023-05-10T05:01:57.132Z,22.14
2023-05-10T05:04:25.079Z,22.14
2023-05-10T05:06:53.779Z,22.12
2023-05-10T05:09:20.878Z,22.13
2023-05-10T05:11:47.560Z,22.13
2023-05-10T05:14:14.109Z,22.13
2023-05-10T05:16:40.744Z,22.12
2023-05-10T05:19:07.303Z,22.12
2023-05-10T05:21:33.973Z,22.12
2023-05-10T05:24:01.139Z,22.12
2023-05-10T05:26:27.745Z,22.10
2023-05-10T05:28:55.591Z,22.12
2023-05-10T05:31:22.443Z,22.12
2023-05-10T05:33:48.991Z,22.12
2023-05-10T05:36:15.579Z,22.11
2023-05-10T05:38:42.089Z,22.13
2023-05-10T05:41:08.593Z,22.10
2023-05-10T05:43:38.019Z,22.10
2023-05-10T05:46:05.061Z,22.11
2023-05-10T05:48:32.119Z,22.11
2023-05-10T05:50:58.998Z,22.10
2023-05-10T05:53:25.923Z,22.11
2023-05-10T05:55:55.485Z,22.10
2023-05-10T05:58:23.478Z,22.09
2023-05-10T06:00:50.765Z,22.07
2023-05-10T06:03:17.555Z,22.09
2023-05-10T06:05:44.838Z,22.08
2023-05-10T06:08:11.593Z,22.09
2023-05-10T06:10:38.255Z,22.09
2023-05-10T06:13:05.090Z,22.10
2023-05-10T06:15:31.593Z,22.09
2023-05-10T06:17:58.119Z,22.10
2023-05-10T06:20:24.682Z,22.11
2023-05-10T06:22:51.277Z,22.10
2023-05-10T06:25:19.298Z,22.11
2023-05-10T06:27:49.847Z,22.10
2023-05-10T06:30:18.574Z,22.10
2023-05-10T06:32:46.156Z,22.11
2023-05-10T06:35:12.681Z,22.10
2023-05-10T06:37:39.276Z,22.10
2023-05-10T06:40:07.280Z,22.11
2023-05-10T06:42:33.777Z,22.11
2023-05-10T06:45:00.269Z,22.10
2023-05-10T06:47:26.803Z,22.09
2023-05-10T06:49:53.314Z,22.10
2023-05-10T06:52:19.842Z,22.10
2023-05-10T06:54:46.538Z,22.09
2023-05-10T06:57:30.021Z,22.10
2023-05-10T06:59:59.032Z,22.09
2023-05-10T07:02:25.637Z,22.11
2023-05-10T07:04:53.032Z,22.10
2023-05-10T07:07:19.992Z,22.12
2023-05-10T07:09:46.773Z,22.11
2023-05-10T07:12:15.435Z,22.10
2023-05-10T07:14:43.042Z,22.11
2023-05-10T07:17:09.972Z,22.11
2023-05-10T07:19:36.919Z,22.11
2023-05-10T07:22:03.787Z,22.13
2023-05-10T07:24:30.856Z,22.10
2023-05-10T07:26:57.455Z,22.10
2023-05-10T07:29:23.985Z,22.11
2023-05-10T07:31:50.554Z,22.11
2023-05-10T07:34:17.412Z,22.11
2023-05-10T07:36:43.931Z,22.13
2023-05-10T07:39:11.469Z,22.12
2023-05-10T07:41:39.684Z,22.11
2023-05-10T07:44:07.008Z,22.11
2023-05-10T07:46:33.488Z,22.12
2023-05-10T07:49:00.029Z,22.12
2023-05-10T07:51:26.554Z,22.12
2023-05-10T07:53:53.143Z,22.13
2023-05-10T07:56:23.967Z,22.13
2023-05-10T07:58:50.681Z,22.13
2023-05-10T08:01:17.205Z,22.14
2023-05-10T08:03:43.845Z,22.13
2023-05-10T08:06:10.481Z,22.13
2023-05-10T08:08:37.059Z,22.13
2023-05-10T08:11:04.531Z,22.13
2023-05-10T08:13:32.397Z,22.15
2023-05-10T08:15:58.954Z,22.15
2023-05-10T08:18:25.702Z,22.15
2023-05-10T08:20:52.219Z,22.15
2023-05-10T08:23:18.753Z,22.14
2023-05-10T08:25:45.403Z,22.15
2023-05-10T08:28:12.032Z,22.14
2023-05-10T08:30:38.690Z,22.13
2023-05-10T08:33:05.310Z,22.14
2023-05-10T08:35:32.530Z,22.15
2023-05-10T08:37:59.101Z,22.15
2023-05-10T08:40:27.423Z,22.13
2023-05-10T08:43:09.867Z,22.15
2023-05-10T08:45:41.648Z,22.18
2023-05-10T08:48:10.279Z,22.17
2023-05-10T08:50:41.892Z,22.16
2023-05-10T08:53:13.015Z,22.17
2023-05-10T08:55:41.102Z,22.17
2023-05-10T08:58:07.932Z,22.17
2023-05-10T09:00:36.265Z,22.17
2023-05-10T09:03:04.725Z,22.16
2023-05-10T09:05:31.696Z,22.18
2023-05-10T09:08:01.438Z,22.17
2023-05-10T09:10:28.919Z,22.18
2023-05-10T09:12:59.285Z,22.18
2023-05-10T09:15:26.891Z,22.18
2023-05-10T09:17:53.815Z,22.18
2023-05-10T09:20:20.649Z,22.17
2023-05-10T09:22:47.390Z,22.19
2023-05-10T09:25:18.228Z,22.19
2023-05-10T09:27:46.861Z,22.20
2023-05-10T09:30:32.164Z,22.20
2023-05-10T09:33:00.679Z,22.18
2023-05-10T09:35:29.869Z,22.18
2023-05-10T09:37:59.146Z,22.19
2023-05-10T09:40:27.133Z,22.19
2023-05-10T09:43:04.087Z,22.18
2023-05-10T09:45:32.489Z,22.19
2023-05-10T09:48:00.485Z,22.20
2023-05-10T09:50:28.683Z,22.20
2023-05-10T09:53:01.146Z,22.20
2023-05-10T09:55:40.811Z,22.21
2023-05-10T09:58:11.835Z,22.21
2023-05-10T10:00:43.922Z,22.20
2023-05-10T10:03:15.927Z,22.21
2023-05-10T10:05:46.279Z,22.20
2023-05-10T10:08:14.081Z,22.21
2023-05-10T10:10:41.515Z,22.20
2023-05-10T10:13:08.794Z,22.20
2023-05-10T10:15:35.917Z,22.20
2023-05-10T10:18:04.594Z,22.21
2023-05-10T10:20:31.236Z,22.21
2023-05-10T10:22:57.839Z,22.21
2023-05-10T10:25:26.089Z,22.21
2023-05-10T10:27:52.541Z,22.23
2023-05-10T10:30:43.777Z,22.21
2023-05-10T10:33:41.577Z,22.22
2023-05-10T10:36:08.735Z,22.22
2023-05-10T10:39:09.688Z,22.21
2023-05-10T10:41:45.482Z,22.24
2023-05-10T10:44:25.360Z,22.24
2023-05-10T10:47:12.585Z,22.25
2023-05-10T10:49:45.518Z,22.27
2023-05-10T10:52:34.311Z,22.27
2023-05-10T10:55:14.866Z,22.30
2023-05-10T10:57:41.434Z,22.32
2023-05-10T11:00:24.196Z,22.33
2023-05-10T11:02:57.437Z,22.34
2023-05-10T11:05:27.364Z,22.34
2023-05-10T11:07:55.838Z,22.35
2023-05-10T11:10:23.187Z,22.36
2023-05-10T11:13:09.738Z,22.34
2023-05-10T11:15:40.354Z,22.36
2023-05-10T11:18:20.332Z,22.37
2023-05-10T11:20:53.981Z,22.38
2023-05-10T11:23:22.013Z,22.38
2023-05-10T11:25:50.070Z,22.38
2023-05-10T11:28:19.875Z,22.39
2023-05-10T11:30:46.870Z,22.40
2023-05-10T11:33:18.268Z,22.40
2023-05-10T11:35:44.812Z,22.40
2023-05-10T11:38:12.488Z,22.41
2023-05-10T11:40:40.441Z,22.40
2023-05-10T11:43:07.224Z,22.40
2023-05-10T11:45:34.581Z,22.40
2023-05-10T11:48:02.160Z,22.40
2023-05-10T11:50:28.920Z,22.40
2023-05-10T11:52:59.877Z,22.41
2023-05-10T11:55:26.631Z,22.41
2023-05-10T11:57:54.699Z,22.41
2023-05-10T12:00:22.186Z,22.41
2023-05-10T12:02:49.604Z,22.42
2023-05-10T12:05:16.540Z,22.42
2023-05-10T12:07:43.281Z,22.41
2023-05-10T12:10:15.582Z,22.43
2023-05-10T12:12:44.344Z,22.43
2023-05-10T12:15:19.282Z,22.44
2023-05-10T12:17:46.905Z,22.43
2023-05-10T12:20:24.941Z,22.44
2023-05-10T12:22:53.996Z,22.45
2023-05-10T12:25:22.488Z,22.46
2023-05-10T12:28:01.879Z,22.49
2023-05-10T12:30:30.090Z,22.50
2023-05-10T12:33:08.292Z,22.50
2023-05-10T12:35:45.596Z,22.52
2023-05-10T12:38:34.397Z,22.53
2023-05-10T12:41:04.101Z,22.53
2023-05-10T12:43:31.275Z,22.53
2023-05-10T12:45:57.894Z,22.54
2023-05-10T12:48:24.864Z,22.55
2023-05-10T12:50:51.506Z,22.56
2023-05-10T12:53:18.001Z,22.55
2023-05-10T12:55:45.360Z,22.55
2023-05-10T12:58:15.773Z,22.57
2023-05-10T13:00:47.851Z,22.58
2023-05-10T13:03:14.940Z,22.57
2023-05-10T13:05:41.408Z,22.58
2023-05-10T13:08:08.063Z,22.59
2023-05-10T13:10:34.571Z,22.61
2023-05-10T13:13:01.228Z,22.62
2023-05-10T13:15:28.023Z,22.62
2023-05-10T13:17:55.375Z,22.64
2023-05-10T13:20:22.052Z,22.64
2023-05-10T13:22:49.202Z,22.65
2023-05-10T13:25:17.016Z,22.67
2023-05-10T13:27:43.632Z,22.66
2023-05-10T13:30:10.711Z,22.66
2023-05-10T13:32:37.601Z,22.68
2023-05-10T13:35:04.792Z,22.68
2023-05-10T13:37:32.505Z,22.69
2023-05-10T13:39:59.208Z,22.69
2023-05-10T13:42:25.830Z,22.68
2023-05-10T13:44:52.593Z,22.69
2023-05-10T13:47:19.491Z,22.69
2023-05-10T13:49:46.242Z,22.69
2023-05-10T13:52:13.118Z,22.71
2023-05-10T13:54:40.030Z,22.71
2023-05-10T13:57:07.565Z,22.71
2023-05-10T13:59:34.131Z,22.71
2023-05-10T14:02:03.547Z,22.71
2023-05-10T14:04:30.703Z,22.73
2023-05-10T14:06:57.485Z,22.72
2023-05-10T14:09:24.191Z,22.72
2023-05-10T14:11:50.772Z,22.73
2023-05-10T14:14:17.248Z,22.73
2023-05-10T14:16:45.341Z,22.73
2023-05-10T14:19:12.376Z,22.73
2023-05-10T14:21:39.252Z,22.73
2023-05-10T14:24:05.988Z,22.73
2023-05-10T14:26:32.631Z,22.76
2023-05-10T14:28:59.930Z,22.77
2023-05-10T14:31:26.694Z,22.79
2023-05-10T14:33:54.002Z,22.81
2023-05-10T14:36:20.577Z,22.81
2023-05-10T14:38:47.583Z,22.81
2023-05-10T14:41:16.053Z,22.82
2023-05-10T14:43:42.768Z,22.82
2023-05-10T14:46:09.722Z,22.83
2023-05-10T14:48:36.478Z,22.82
2023-05-10T14:51:03.018Z,22.84
2023-05-10T14:53:29.522Z,22.85
2023-05-10T14:55:56.022Z,22.84
2023-05-10T14:58:22.541Z,22.86
2023-05-10T15:00:49.023Z,22.86
2023-05-10T15:03:16.474Z,22.87
2023-05-10T15:05:43.500Z,22.87
2023-05-10T15:08:10.396Z,22.87
2023-05-10T15:10:37.735Z,22.89
2023-05-10T15:13:05.484Z,22.89
2023-05-10T15:15:32.286Z,22.90
2023-05-10T15:17:58.812Z,22.89
2023-05-10T15:20:25.837Z,22.89
2023-05-10T15:22:52.364Z,22.91
2023-05-10T15:25:19.247Z,22.91
2023-05-10T15:27:46.071Z,22.92
2023-05-10T15:30:13.169Z,22.92
2023-05-10T15:32:41.040Z,22.92
2023-05-10T15:35:09.636Z,22.93
2023-05-10T15:37:36.634Z,22.94
2023-05-10T15:40:05.083Z,22.93
2023-05-10T15:42:32.874Z,22.94
2023-05-10T15:44:59.749Z,22.94
2023-05-10T15:47:26.853Z,22.95
2023-05-10T15:49:53.477Z,22.95
2023-05-10T15:52:21.583Z,22.94
2023-05-10T15:54:48.131Z,22.95
2023-05-10T15:57:14.650Z,22.96
2023-05-10T15:59:41.549Z,22.96
2023-05-10T16:02:10.903Z,22.95
2023-05-10T16:04:37.906Z,22.98
2023-05-10T16:07:04.529Z,22.95
2023-05-10T16:09:31.036Z,22.98
2023-05-10T16:11:57.616Z,22.97
2023-05-10T16:14:24.798Z,22.98
2023-05-10T16:16:51.600Z,22.99
2023-05-10T16:19:18.619Z,22.99
2023-05-10T16:21:45.466Z,22.99
2023-05-10T16:24:12.319Z,22.98
2023-05-10T16:26:41.085Z,22.98
2023-05-10T16:29:08.745Z,23.00
2023-05-10T16:31:35.602Z,23.00
2023-05-10T16:34:02.422Z,23.00
2023-05-10T16:36:31.322Z,23.00
2023-05-10T16:38:58.792Z,23.01
2023-05-10T16:41:26.444Z,23.00
2023-05-10T16:43:52.982Z,23.00
2023-05-10T16:46:19.554Z,23.01
2023-05-10T16:48:46.165Z,23.01
2023-05-10T16:51:13.196Z,23.01
2023-05-10T16:53:39.737Z,23.01
2023-05-10T16:56:06.697Z,23.00
2023-05-10T16:58:34.138Z,22.98
2023-05-10T17:01:00.632Z,23.00
2023-05-10T17:03:27.374Z,23.01
2023-05-10T17:05:54.183Z,23.01
2023-05-10T17:08:22.144Z,23.00
2023-05-10T17:10:48.758Z,23.00
2023-05-10T17:13:17.116Z,23.00
2023-05-10T17:15:45.918Z,23.01
2023-05-10T17:18:12.614Z,23.01
2023-05-10T17:20:39.396Z,23.00
2023-05-10T17:23:06.127Z,23.00
2023-05-10T17:25:32.630Z,23.01
2023-05-10T17:27:59.167Z,22.99
2023-05-10T17:30:28.154Z,23.01
2023-05-10T17:32:54.775Z,23.00
2023-05-10T17:35:21.583Z,23.01
2023-05-10T17:37:48.155Z,23.01
2023-05-10T17:40:15.044Z,23.01
2023-05-10T17:42:41.982Z,23.01
2023-05-10T17:45:09.161Z,23.02
2023-05-10T17:47:35.810Z,23.01
2023-05-10T17:50:02.343Z,23.00
2023-05-10T17:52:31.389Z,23.00
2023-05-10T17:54:59.523Z,23.01
2023-05-10T17:57:26.144Z,23.01
2023-05-10T17:59:52.670Z,23.01
2023-05-10T18:02:19.205Z,23.01
2023-05-10T18:04:45.994Z,23.02
2023-05-10T18:07:12.665Z,23.01
2023-05-10T18:09:39.232Z,23.00
2023-05-10T18:12:06.157Z,23.01
2023-05-10T18:14:40.538Z,23.00
2023-05-10T18:17:08.042Z,23.01
2023-05-10T18:19:34.778Z,23.00
2023-05-10T18:22:01.276Z,23.01
2023-05-10T18:24:38.264Z,23.00
2023-05-10T18:27:09.665Z,23.01
2023-05-10T18:29:37.033Z,23.00
2023-05-10T18:32:03.715Z,23.00
2023-05-10T18:34:30.392Z,23.00
2023-05-10T18:36:57.077Z,23.01
2023-05-10T18:39:24.349Z,23.00
2023-05-10T18:41:51.103Z,23.01
2023-05-10T18:44:18.940Z,23.01
2023-05-10T18:46:45.664Z,23.01
2023-05-10T18:49:12.202Z,23.00
2023-05-10T18:51:38.720Z,23.00
2023-05-10T18:54:05.248Z,23.00
2023-05-10T18:56:31.760Z,23.00
2023-05-10T18:58:58.352Z,22.98
2023-05-10T19:01:25.073Z,22.98
2023-05-10T19:03:51.707Z,22.97
2023-05-10T19:06:18.229Z,22.99
2023-05-10T19:08:44.749Z,22.98
2023-05-10T19:11:11.311Z,22.99
2023-05-10T19:13:37.985Z,22.98
2023-05-10T19:16:15.866Z,22.98
2023-05-10T19:18:43.644Z,22.96
2023-05-10T19:21:11.415Z,22.97
2023-05-10T19:23:40.412Z,22.98
2023-05-10T19:26:07.341Z,22.98
2023-05-10T19:28:36.724Z,22.98
2023-05-10T19:31:03.586Z,22.97
2023-05-10T19:33:30.301Z,22.95
2023-05-10T19:35:56.798Z,22.96
2023-05-10T19:38:24.324Z,22.96
2023-05-10T19:40:57.483Z,22.95
2023-05-10T19:43:28.842Z,22.95
2023-05-10T19:45:59.190Z,22.95
2023-05-10T19:48:26.480Z,22.94
2023-05-10T19:50:53.897Z,22.95
2023-05-10T19:53:20.385Z,22.95
2023-05-10T19:55:46.967Z,22.93
2023-05-10T19:58:13.512Z,22.93
2023-05-10T20:00:40.070Z,22.94
2023-05-10T20:03:09.157Z,22.93
2023-05-10T20:05:35.995Z,22.94
2023-05-10T20:08:02.555Z,22.92
2023-05-10T20:10:29.180Z,22.92
2023-05-10T20:12:55.717Z,22.92
2023-05-10T20:15:23.311Z,22.92
2023-05-10T20:17:52.253Z,22.92
2023-05-10T20:20:20.231Z,22.90
2023-05-10T20:22:50.160Z,22.91
2023-05-10T20:25:18.029Z,22.91
2023-05-10T20:27:45.120Z,22.91
2023-05-10T20:30:12.341Z,22.90
2023-05-10T20:32:39.026Z,22.90
2023-05-10T20:35:06.238Z,22.89
2023-05-10T20:37:32.806Z,22.88
2023-05-10T20:39:59.367Z,22.88
2023-05-10T20:42:25.964Z,22.88
2023-05-10T20:44:52.468Z,22.87
2023-05-10T20:47:19.369Z,22.86
2023-05-10T20:49:46.256Z,22.86
2023-05-10T20:52:12.848Z,22.86
2023-05-10T20:54:39.379Z,22.85
2023-05-10T20:57:06.049Z,22.85
2023-05-10T20:59:32.600Z,22.86
2023-05-10T21:01:59.302Z,22.88
2023-05-10T21:04:26.030Z,22.86
2023-05-10T21:06:53.253Z,22.85
2023-05-10T21:09:19.908Z,22.85
2023-05-10T21:11:46.594Z,22.84
2023-05-10T21:14:13.173Z,22.84
2023-05-10T21:16:39.953Z,22.85
2023-05-10T21:19:07.509Z,22.85
2023-05-10T21:21:34.563Z,22.83
2023-05-10T21:24:01.183Z,22.82
2023-05-10T21:26:27.755Z,22.82
2023-05-10T21:28:54.442Z,22.80
2023-05-10T21:31:21.408Z,22.80
2023-05-10T21:33:47.946Z,22.80
2023-05-10T21:36:14.509Z,22.81
2023-05-10T21:38:42.304Z,22.79
2023-05-10T21:41:08.850Z,22.79
2023-05-10T21:43:35.520Z,22.81
2023-05-10T21:46:02.120Z,22.78
2023-05-10T21:48:28.664Z,22.81
2023-05-10T21:50:55.266Z,22.79
2023-05-10T21:53:22.409Z,22.77
2023-05-10T21:55:49.049Z,22.77
2023-05-10T21:58:15.781Z,22.79
2023-05-10T22:00:42.283Z,22.79
2023-05-10T22:03:08.958Z,22.78
2023-05-10T22:05:35.664Z,22.76
2023-05-10T22:08:02.205Z,22.76
2023-05-10T22:10:28.925Z,22.76
2023-05-10T22:12:55.530Z,22.74
2023-05-10T22:15:22.253Z,22.75
2023-05-10T22:17:48.950Z,22.74
2023-05-10T22:20:15.792Z,22.74
2023-05-10T22:22:42.535Z,22.75
2023-05-10T22:25:09.328Z,22.75
2023-05-10T22:27:35.972Z,22.73
2023-05-10T22:30:03.908Z,22.74
2023-05-10T22:32:31.633Z,22.73
2023-05-10T22:34:58.346Z,22.75
2023-05-10T22:37:24.864Z,22.72
2023-05-10T22:39:51.465Z,22.72
2023-05-10T22:42:18.001Z,22.71
2023-05-10T22:44:44.563Z,22.69
2023-05-10T22:47:11.260Z,22.71
2023-05-10T22:49:38.067Z,22.70
2023-05-10T22:52:04.824Z,22.69
2023-05-10T22:54:31.421Z,22.69
2023-05-10T22:56:58.213Z,22.68
2023-05-10T22:59:24.763Z,22.69
2023-05-10T23:01:51.384Z,22.70
2023-05-10T23:04:18.268Z,22.67
2023-05-10T23:06:45.866Z,22.68
2023-05-10T23:09:12.638Z,22.67
2023-05-10T23:11:39.492Z,22.68
2023-05-10T23:14:06.153Z,22.65
2023-05-10T23:16:32.718Z,22.66
2023-05-10T23:18:59.344Z,22.65
2023-05-10T23:21:25.959Z,22.64
2023-05-10T23:23:52.799Z,22.64
2023-05-10T23:26:19.696Z,22.62
2023-05-10T23:28:46.224Z,22.64
2023-05-10T23:31:12.742Z,22.63
2023-05-10T23:33:39.212Z,22.63
2023-05-10T23:36:05.939Z,22.63
2023-05-10T23:38:32.781Z,22.63
2023-05-10T23:40:59.393Z,22.62
2023-05-10T23:43:25.975Z,22.62
2023-05-10T23:45:56.564Z,22.61
2023-05-10T23:48:23.548Z,22.61
2023-05-10T23:50:50.674Z,22.61
2023-05-10T23:53:17.226Z,22.61
2023-05-10T23:55:43.885Z,22.60
2023-05-10T23:58:10.698Z,22.59
